Terminal Aerodrome Forecast
Issued by NWS

Home | Current Version | Previous Version | Text Only | Print | Product List | Glossary Off
Versions: 1 2 3 4 5 6 7 8 9 10 11 12 13 14 15 16 17

000
FTUS43 KPAH 282320
TAFOWB
TAF
KOWB 282320Z 2900/2924 19007KT P6SM VCTS SCT025CB BKN035
     FM290200 17007KT 6SM -SHRA BR VCTS SCT020CB BKN030
     FM291400 18011G21KT P6SM BKN030=

USA.gov is the U.S. government's official web portal to all federal, state and local government web resources and services.